Terminal Aerodrome Forecast
Issued by NWS

Home | Current Version | Previous Version | Text Only | Print | Product List | Glossary On
Versions: 1 2 3 4 5 6 7 8 9 10 11 12 13 14 15 16 17 18 19 20 21 22 23 24 25 26 27 28 29
151
FTUS44 KLZK 261844 AAA
TAFADF
TAF AMD
KADF 261844Z 2619/2718 17008KT 5SM -RA BKN015 OVC050
      TEMPO 2619/2622 VRB25G40KT 1SM TSRA OVC007CB
     FM262200 25012G20KT P6SM -SHRA SCT010 OVC020
      TEMPO 2622/2702 OVC010
     FM270200 27008G16KT P6SM OVC030
     FM270600 29010KT P6SM SCT025 SCT100
      AMD NOT SKED=

USA.gov is the U.S. government's official web portal to all federal, state and local government web resources and services.